Route Details

Aircraft Information
Group: North America Fleet
Types: B738, B752, B762, B763
Route Data
Distance: 1394nm
Duration: 3h 50m
Origin METAR: KJFK 152351Z 14005KT 10SM FEW050 FEW140 FEW250 22/14 A2999 RMK AO2 SLP155 T02220144 10278 20222 53006
Dest. METAR: TJSJ 152356Z 33004KT 10SM FEW038 SCT045 SCT060 28/24 A2996 RMK AO2 SLP143 60000 T02780244 10300 20278 52010
Freight Data
(for Aug 16, 2022)
Load Factor:
86%
Manifested Cargo: 58,169lbs
Financial History
Total Freight: 103,073lbs
Average Load: 0lbs/flt
Fuel Used: 53,164lbs
Avg. Fuel Used: 0lbs/flt
Fuel Expense: $27,116
Avg. Fuel Expense: $0
Avg. Fuel Cost: $0/lbs
Total Gross Income: $350,448
Pilot Pay: $478
Total Expenses: $77,972
Total Revenue: $242,611
Average Revenue: $0

Capitol Logistics 463




KJFK
John F Kennedy International Airport
New York, New York
TJSJ
Luis Munoz Marin International Airport
San Juan,

Activity Log

Date Flight Route Aircraft Duration
07/21/2022 CPX463 DCT SHIPP Y489 RESQU DCT SKPPR L455 LENNT M423 PLING RTE7 SAALR DCT B762 3h 39m
07/15/2022 CPX463 DCT SHIPP Y492 SQUAD DCT DARUX L456 THANK DCT PLING RTE7 SAALR DCT B763 3h 35m